Time;durP1;ratioP1;P1;durP2;ratioP2;P2;SDS_P1;SDS_P2;PMS_P1;PMS_P2;Temp;Humidity;BMP_temperature;BMP_pressure;BME280_temperature;BME280_humidity;BME280_pressure;Samples;Min_cycle;Max_cycle;Signal;HPM_P1;HPM_P2
2022/09/25 00:02:31;;;;;;;3.08;2.97;;;12.80;99.90;;;;;;6142243;29;20192;-68
2022/09/25 00:05:36;;;;;;;4.05;3.65;;;12.70;99.90;;;;;;6142991;29;20189;-67
2022/09/25 00:08:42;;;;;;;4.47;3.20;;;12.70;99.90;;;;;;6142056;29;20431;-67
2022/09/25 00:11:46;;;;;;;4.93;3.38;;;12.70;99.90;;;;;;6160560;29;20529;-67
2022/09/25 00:14:52;;;;;;;3.40;3.20;;;12.70;99.90;;;;;;6166269;28;20235;-67
2022/09/25 00:17:56;;;;;;;3.38;3.13;;;12.70;99.90;;;;;;6166174;28;20227;-68
2022/09/25 00:21:00;;;;;;;3.38;3.28;;;12.70;99.90;;;;;;6166619;28;20211;-68
2022/09/25 00:24:08;;;;;;;3.42;3.20;;;12.60;99.90;;;;;;6166023;28;20235;-67
2022/09/25 00:27:14;;;;;;;4.10;3.63;;;12.50;99.90;;;;;;6166452;28;20188;-67
2022/09/25 00:30:19;;;;;;;3.53;3.40;;;12.50;99.90;;;;;;6164694;29;20542;-67
2022/09/25 00:33:24;;;;;;;3.85;3.60;;;12.50;99.90;;;;;;6165200;28;20294;-67
2022/09/25 00:36:29;;;;;;;3.83;3.58;;;12.50;99.90;;;;;;6166145;29;20187;-67
2022/09/25 00:39:33;;;;;;;3.78;3.67;;;12.50;99.90;;;;;;6165407;28;20399;-67
2022/09/25 00:42:39;;;;;;;4.72;3.60;;;12.40;99.90;;;;;;6165553;28;20211;-68
2022/09/25 00:45:45;;;;;;;3.92;3.63;;;12.50;99.90;;;;;;6165989;28;20194;-67
2022/09/25 00:48:51;;;;;;;3.60;3.45;;;12.40;99.90;;;;;;6164238;29;20231;-67
2022/09/25 00:51:59;;;;;;;4.75;4.40;;;12.40;99.90;;;;;;6165754;29;20188;-67
2022/09/25 00:55:06;;;;;;;4.68;4.30;;;12.40;99.90;;;;;;6165257;28;20298;-67
2022/09/25 00:58:15;;;;;;;5.63;4.10;;;12.40;99.90;;;;;;6164740;28;20246;-67
2022/09/25 01:01:21;;;;;;;4.15;3.92;;;12.40;99.90;;;;;;6165405;28;20216;-68
2022/09/25 01:04:27;;;;;;;3.90;3.70;;;12.30;99.90;;;;;;6165044;28;20234;-67
2022/09/25 01:07:32;;;;;;;4.03;3.90;;;12.30;99.90;;;;;;6164588;28;20231;-67
2022/09/25 01:10:37;;;;;;;4.63;4.05;;;12.30;99.90;;;;;;6156013;29;20240;-68
2022/09/25 01:13:41;;;;;;;4.38;4.10;;;12.30;99.90;;;;;;6141130;29;20232;-67
2022/09/25 01:16:53;;;;;;;4.75;4.40;;;12.30;99.90;;;;;;6141139;29;20383;-67
2022/09/25 01:20:11;;;;;;;4.20;3.80;;;12.30;99.90;;;;;;6140842;29;20232;-67
2022/09/25 01:23:25;;;;;;;3.90;3.80;;;12.30;99.90;;;;;;6140916;29;20244;-67
2022/09/25 01:27:05;;;;;;;4.53;3.75;;;12.30;99.90;;;;;;6141308;29;20188;-67
2022/09/25 01:30:18;;;;;;;4.32;4.03;;;12.30;99.90;;;;;;6140499;29;20534;-68
2022/09/25 01:33:25;;;;;;;4.20;4.00;;;12.30;99.90;;;;;;6140455;29;20287;-67
2022/09/25 01:36:34;;;;;;;3.70;3.60;;;12.30;99.90;;;;;;6140778;29;20423;-67
2022/09/25 01:39:43;;;;;;;4.28;4.07;;;12.20;99.90;;;;;;6140474;29;20246;-67
2022/09/25 01:42:53;;;;;;;3.70;3.50;;;12.10;99.90;;;;;;6140183;29;20485;-67
2022/09/25 01:46:02;;;;;;;4.68;3.75;;;12.10;99.90;;;;;;6140791;29;20212;-67
2022/09/25 01:49:10;;;;;;;4.30;4.00;;;12.10;99.90;;;;;;6140344;29;20274;-67
2022/09/25 01:52:17;;;;;;;6.30;4.28;;;12.20;99.90;;;;;;6140866;29;20294;-67
2022/09/25 01:55:28;;;;;;;4.20;3.85;;;12.20;99.90;;;;;;6140373;29;20232;-67
2022/09/25 01:58:36;;;;;;;3.78;3.58;;;12.20;99.90;;;;;;6140026;29;20413;-68
2022/09/25 02:01:43;;;;;;;4.00;3.80;;;12.20;99.90;;;;;;6140738;29;20328;-67
2022/09/25 02:04:53;;;;;;;4.40;4.10;;;12.10;99.90;;;;;;6140435;29;20235;-67
2022/09/25 02:08:02;;;;;;;4.50;4.20;;;12.10;99.90;;;;;;6139990;29;20247;-68
2022/09/25 02:11:07;;;;;;;4.00;3.90;;;12.10;99.90;;;;;;6153850;29;20262;-67
2022/09/25 02:14:19;;;;;;;4.25;4.10;;;12.10;99.90;;;;;;6163847;28;20230;-67
2022/09/25 02:20:58;;;;;;;4.53;4.20;;;12.10;99.90;;;;;;6163722;28;20282;-67
2022/09/25 02:24:14;;;;;;;5.95;3.97;;;12.00;99.90;;;;;;6163655;28;20231;-68
2022/09/25 02:27:19;;;;;;;4.97;3.92;;;12.10;99.90;;;;;;6163991;29;20216;-68
2022/09/25 02:30:23;;;;;;;4.22;4.03;;;12.10;99.90;;;;;;6140086;29;20212;-68
2022/09/25 02:33:30;;;;;;;4.47;4.25;;;12.10;99.90;;;;;;6139833;29;20235;-67
2022/09/25 02:36:34;;;;;;;4.18;4.00;;;12.00;99.90;;;;;;6139503;29;20195;-67
2022/09/25 02:39:39;;;;;;;4.72;4.25;;;12.00;99.90;;;;;;6139679;29;20286;-66
2022/09/25 02:42:48;;;;;;;6.55;4.25;;;11.90;99.90;;;;;;6139816;29;20250;-67
2022/09/25 02:46:02;;;;;;;4.40;4.30;;;11.90;99.90;;;;;;6140371;29;20335;-66
2022/09/25 02:49:22;;;;;;;4.50;4.20;;;12.00;99.90;;;;;;6139527;29;20299;-67
2022/09/25 02:52:32;;;;;;;5.07;4.07;;;11.90;99.90;;;;;;6139643;29;20231;-67
2022/09/25 02:55:41;;;;;;;4.70;4.22;;;11.90;99.90;;;;;;6140387;29;20196;-67
2022/09/25 02:58:51;;;;;;;3.47;3.25;;;11.90;99.90;;;;;;6143704;29;20283;-67
2022/09/25 03:01:55;;;;;;;3.83;3.60;;;12.00;99.90;;;;;;6131026;29;20298;-67
2022/09/25 03:05:02;;;;;;;4.28;4.07;;;12.00;99.90;;;;;;6135595;29;20264;-67
2022/09/25 03:11:43;;;;;;;4.22;4.10;;;12.00;99.90;;;;;;6086672;29;20234;-67
2022/09/25 03:14:48;;;;;;;3.65;3.53;;;12.00;99.90;;;;;;6071709;29;20268;-66
2022/09/25 03:17:52;;;;;;;3.75;3.65;;;12.00;99.90;;;;;;6141329;29;20295;-66
2022/09/25 03:20:57;;;;;;;3.80;3.60;;;11.90;99.90;;;;;;6122934;29;20223;-66
2022/09/25 03:24:02;;;;;;;3.85;3.60;;;12.00;99.90;;;;;;6118529;29;20424;-67
2022/09/25 03:27:06;;;;;;;7.20;3.80;;;11.90;99.90;;;;;;6119513;29;20409;-67
2022/09/25 03:30:11;;;;;;;4.10;3.70;;;11.90;99.90;;;;;;6119874;29;20437;-67
2022/09/25 03:33:19;;;;;;;3.72;3.63;;;11.90;99.90;;;;;;6119504;29;20543;-67
2022/09/25 03:36:26;;;;;;;3.53;3.33;;;11.90;99.90;;;;;;6128449;29;20263;-68
2022/09/25 03:39:30;;;;;;;11.05;4.07;;;11.90;99.90;;;;;;6142089;29;20538;-68
2022/09/25 03:42:35;;;;;;;3.65;3.55;;;11.90;99.90;;;;;;6142854;29;20443;-69
2022/09/25 03:45:39;;;;;;;3.30;3.17;;;11.80;99.90;;;;;;6143557;29;20442;-68
2022/09/25 03:48:43;;;;;;;3.67;3.58;;;11.80;99.90;;;;;;6142868;29;20247;-68
2022/09/25 03:51:49;;;;;;;3.67;3.58;;;11.80;99.90;;;;;;6143110;29;20200;-68
2022/09/25 03:54:53;;;;;;;4.22;3.95;;;11.80;99.90;;;;;;6142882;29;20299;-67
2022/09/25 03:57:57;;;;;;;3.17;3.08;;;11.70;99.90;;;;;;6142518;28;20463;-67
2022/09/25 04:01:02;;;;;;;4.25;3.95;;;11.80;99.90;;;;;;6143170;29;20215;-68
2022/09/25 04:04:06;;;;;;;3.30;3.20;;;11.80;99.90;;;;;;6142817;29;20235;-68
2022/09/25 04:07:12;;;;;;;3.65;3.35;;;11.80;99.90;;;;;;6142151;28;20457;-68
2022/09/25 04:10:17;;;;;;;3.67;3.47;;;11.70;99.90;;;;;;6135187;29;20233;-66
2022/09/25 04:13:21;;;;;;;3.80;3.40;;;11.70;99.90;;;;;;6118652;29;20434;-67
2022/09/25 04:16:26;;;;;;;3.13;3.03;;;11.70;99.90;;;;;;6118872;29;20280;-66
2022/09/25 04:19:30;;;;;;;3.70;3.63;;;11.70;99.90;;;;;;6118384;29;20239;-67
2022/09/25 04:22:35;;;;;;;3.60;3.40;;;11.70;99.90;;;;;;6118610;29;20236;-67
2022/09/25 04:25:40;;;;;;;3.53;3.42;;;11.70;99.90;;;;;;6118660;29;20265;-67
2022/09/25 04:28:44;;;;;;;4.07;3.80;;;11.80;99.90;;;;;;6118477;29;20308;-67
2022/09/25 04:33:44;;;;;;;3.83;3.50;;;11.70;99.90;;;;;;6118535;29;20256;-67
2022/09/25 04:35:12;;;;;;;3.58;3.28;;;11.70;99.90;;;;;;6141952;28;20388;-67
2022/09/25 04:38:18;;;;;;;3.38;3.33;;;11.60;99.90;;;;;;6141517;29;20605;-67
2022/09/25 04:41:22;;;;;;;3.45;3.35;;;11.60;99.90;;;;;;6141748;29;20211;-67
2022/09/25 04:44:27;;;;;;;3.70;3.50;;;11.70;99.90;;;;;;6141308;29;20238;-68
2022/09/25 04:47:31;;;;;;;3.40;3.30;;;11.70;99.90;;;;;;6141276;29;20466;-67
2022/09/25 04:50:35;;;;;;;3.17;3.08;;;11.60;99.90;;;;;;6141009;29;20192;-67
2022/09/25 04:53:41;;;;;;;3.70;3.60;;;11.70;99.90;;;;;;6141485;29;20274;-68
2022/09/25 04:56:45;;;;;;;3.63;3.30;;;11.60;99.90;;;;;;6141862;29;20227;-67
2022/09/25 04:59:50;;;;;;;3.78;3.60;;;11.60;99.90;;;;;;6141363;29;20303;-67
2022/09/25 05:02:54;;;;;;;3.30;3.20;;;11.50;99.90;;;;;;6140963;29;20459;-67
2022/09/25 05:05:58;;;;;;;3.55;3.45;;;11.60;99.90;;;;;;6141277;29;20539;-67
2022/09/25 05:09:04;;;;;;;3.45;3.30;;;11.60;99.90;;;;;;6141229;29;20250;-67
2022/09/25 05:12:09;;;;;;;3.40;3.30;;;11.60;99.90;;;;;;6159883;28;20421;-68
2022/09/25 05:15:15;;;;;;;5.03;3.20;;;11.60;99.90;;;;;;6141546;29;20188;-67
2022/09/25 05:18:21;;;;;;;3.50;3.28;;;11.60;99.90;;;;;;6151972;28;20424;-67
2022/09/25 05:21:25;;;;;;;3.28;3.05;;;11.60;99.90;;;;;;6164403;28;20295;-68
2022/09/25 05:24:31;;;;;;;3.63;3.30;;;11.70;99.90;;;;;;6144074;28;20282;-67
2022/09/25 05:27:36;;;;;;;3.25;3.15;;;11.60;99.90;;;;;;6146265;28;20235;-66
2022/09/25 05:30:40;;;;;;;3.53;3.30;;;11.60;99.90;;;;;;6164815;28;20260;-66
2022/09/25 05:33:44;;;;;;;3.97;3.75;;;11.70;99.90;;;;;;6149993;28;20235;-67
2022/09/25 05:36:48;;;;;;;3.42;3.25;;;11.60;99.90;;;;;;6140732;29;20377;-68
2022/09/25 05:39:54;;;;;;;3.75;3.55;;;11.80;99.90;;;;;;6164308;28;20582;-68
2022/09/25 05:42:58;;;;;;;3.28;3.20;;;11.70;99.90;;;;;;6155883;28;20236;-68
2022/09/25 05:46:03;;;;;;;6.00;3.53;;;11.70;99.90;;;;;;6141005;29;20259;-68
2022/09/25 05:49:07;;;;;;;3.45;3.20;;;11.70;99.90;;;;;;6147013;29;20262;-67
2022/09/25 05:52:12;;;;;;;3.85;3.55;;;11.80;99.90;;;;;;6161613;28;20537;-67
2022/09/25 05:55:18;;;;;;;3.63;3.53;;;11.80;99.90;;;;;;6141128;29;20259;-68
2022/09/25 05:58:22;;;;;;;3.50;3.40;;;11.80;99.90;;;;;;6150915;29;20235;-68
2022/09/25 06:01:26;;;;;;;3.60;3.33;;;11.80;99.90;;;;;;6164038;29;20187;-67
2022/09/25 06:04:30;;;;;;;3.58;3.47;;;11.80;99.90;;;;;;6143445;28;20252;-67
2022/09/25 06:07:35;;;;;;;3.63;3.53;;;11.80;99.90;;;;;;6145245;28;20506;-67
2022/09/25 06:10:42;;;;;;;3.90;3.60;;;11.80;99.90;;;;;;6155093;29;20324;-67
2022/09/25 06:13:49;;;;;;;3.95;3.70;;;11.80;99.90;;;;;;6140082;29;20613;-67
2022/09/25 06:16:58;;;;;;;4.15;4.00;;;11.90;99.90;;;;;;6139834;29;20216;-68
2022/09/25 06:20:02;;;;;;;4.18;3.97;;;11.90;99.90;;;;;;6140548;29;20188;-67
2022/09/25 06:23:24;;;;;;;3.88;3.70;;;11.90;99.90;;;;;;6139868;29;20319;-67
2022/09/25 06:26:30;;;;;;;3.40;3.20;;;12.00;99.90;;;;;;6140570;29;20227;-67
2022/09/25 06:29:35;;;;;;;4.45;4.00;;;12.10;99.90;;;;;;6139912;29;20403;-67
2022/09/25 06:32:39;;;;;;;3.70;3.45;;;12.10;99.90;;;;;;6142356;29;20243;-68
2022/09/25 06:35:44;;;;;;;3.90;3.80;;;12.10;99.90;;;;;;6144635;29;20539;-68
2022/09/25 06:38:49;;;;;;;3.63;3.42;;;12.10;99.90;;;;;;6144331;29;20238;-66
2022/09/25 06:41:55;;;;;;;4.30;4.10;;;12.20;99.90;;;;;;6144482;29;20220;-67
2022/09/25 06:44:59;;;;;;;4.35;4.07;;;12.20;99.90;;;;;;6121028;29;20279;-69
2022/09/25 06:48:05;;;;;;;3.95;3.80;;;12.20;99.90;;;;;;6129408;29;20238;-67
2022/09/25 06:51:11;;;;;;;3.85;3.70;;;12.20;99.90;;;;;;6144747;29;20370;-68
2022/09/25 06:54:15;;;;;;;4.03;3.90;;;12.20;99.90;;;;;;6144373;29;20235;-67
2022/09/25 06:57:21;;;;;;;4.55;4.25;;;12.20;99.90;;;;;;6143850;29;20477;-67
2022/09/25 07:00:25;;;;;;;3.90;3.80;;;12.30;99.90;;;;;;6143483;29;20236;-67
2022/09/25 07:03:44;;;;;;;3.80;3.60;;;12.30;99.90;;;;;;6143620;29;20246;-68
2022/09/25 07:06:49;;;;;;;3.17;3.10;;;12.30;99.90;;;;;;6144079;29;20362;-67
2022/09/25 07:09:53;;;;;;;3.03;2.95;;;12.30;99.90;;;;;;6146698;29;20629;-68
2022/09/25 07:12:59;;;;;;;3.28;3.15;;;12.40;99.90;;;;;;6166600;29;20235;-67
2022/09/25 07:16:06;;;;;;;3.22;2.97;;;12.40;99.90;;;;;;6168039;29;20258;-67
2022/09/25 07:19:11;;;;;;;3.30;3.10;;;12.40;99.90;;;;;;6149501;28;20244;-68
2022/09/25 07:22:15;;;;;;;3.30;3.00;;;12.40;99.90;;;;;;6146334;28;20249;-68
2022/09/25 07:25:19;;;;;;;3.30;3.20;;;12.40;99.90;;;;;;6167938;28;20333;-68
2022/09/25 07:28:25;;;;;;;3.42;3.28;;;12.50;99.90;;;;;;6155494;28;20243;-68
2022/09/25 07:31:32;;;;;;;3.10;3.00;;;12.60;99.90;;;;;;6143877;29;20196;-67
2022/09/25 07:34:36;;;;;;;3.50;3.30;;;12.60;99.90;;;;;;6164385;28;20432;-68
2022/09/25 07:37:41;;;;;;;4.07;3.40;;;12.60;99.90;;;;;;6160687;28;20232;-68
2022/09/25 07:40:46;;;;;;;3.50;3.33;;;12.70;99.90;;;;;;6143806;29;20196;-68
2022/09/25 07:43:55;;;;;;;3.45;3.20;;;12.80;99.90;;;;;;6157892;28;20241;-68
2022/09/25 07:47:19;;;;;;;2.95;2.70;;;12.80;99.90;;;;;;6163628;28;20243;-68
2022/09/25 07:50:23;;;;;;;3.22;3.08;;;12.90;99.90;;;;;;6143106;29;20385;-68
2022/09/25 07:53:27;;;;;;;3.00;2.90;;;12.90;99.90;;;;;;6154999;28;20554;-68
2022/09/25 07:56:33;;;;;;;2.60;2.60;;;13.00;99.90;;;;;;6167125;28;20187;-68
2022/09/25 07:59:39;;;;;;;3.10;2.65;;;13.00;99.90;;;;;;6165391;29;20236;-68
2022/09/25 08:02:43;;;;;;;2.70;2.70;;;13.00;99.90;;;;;;6159630;28;20591;-68
2022/09/25 08:05:47;;;;;;;2.63;2.42;;;13.00;99.90;;;;;;6143172;29;20208;-68
2022/09/25 08:08:52;;;;;;;3.88;2.58;;;13.10;99.90;;;;;;6158004;28;20235;-68
2022/09/25 08:11:56;;;;;;;2.63;2.53;;;13.10;99.90;;;;;;6146133;29;20236;-68
2022/09/25 08:15:01;;;;;;;3.15;2.92;;;13.20;99.90;;;;;;6142579;29;20255;-68
2022/09/25 08:18:06;;;;;;;2.53;2.42;;;13.20;99.90;;;;;;6142315;29;20231;-68
2022/09/25 08:21:13;;;;;;;2.95;2.80;;;13.20;99.90;;;;;;6142810;29;20188;-68
2022/09/25 08:24:17;;;;;;;4.40;2.63;;;13.40;99.90;;;;;;6142089;29;20306;-67
2022/09/25 08:27:21;;;;;;;2.47;2.38;;;13.40;99.90;;;;;;6142131;29;20231;-67
2022/09/25 08:30:28;;;;;;;2.13;2.10;;;13.50;99.90;;;;;;6141983;29;20251;-67
2022/09/25 08:33:33;;;;;;;2.30;2.30;;;13.50;99.90;;;;;;6141975;29;20287;-67
2022/09/25 08:36:37;;;;;;;2.45;2.35;;;13.60;99.90;;;;;;6142389;29;20188;-67
2022/09/25 08:39:41;;;;;;;2.40;2.10;;;13.60;99.90;;;;;;6141593;29;20294;-67
2022/09/25 08:42:47;;;;;;;2.58;2.20;;;13.70;99.90;;;;;;6141761;29;20238;-67
2022/09/25 08:49:19;;;;;;;2.58;2.38;;;13.70;99.90;;;;;;6141442;29;20594;-68
2022/09/25 08:52:23;;;;;;;2.20;2.20;;;13.70;99.90;;;;;;6141430;29;20302;-68
2022/09/25 08:56:13;;;;;;;2.47;2.30;;;13.70;99.90;;;;;;6141053;29;20197;-67
2022/09/25 08:59:00;;;;;;;2.20;2.20;;;13.70;99.90;;;;;;6141032;29;20308;-67
2022/09/25 09:02:16;;;;;;;2.25;2.25;;;13.60;99.90;;;;;;6141070;29;20259;-67
2022/09/25 09:05:25;;;;;;;3.65;1.77;;;13.60;99.90;;;;;;6141231;29;20384;-67
2022/09/25 09:08:31;;;;;;;2.00;1.90;;;13.70;99.90;;;;;;6140677;29;20655;-68
2022/09/25 09:11:39;;;;;;;4.50;2.05;;;13.70;99.90;;;;;;6158340;29;20235;-67
2022/09/25 09:14:47;;;;;;;1.88;1.88;;;13.70;99.90;;;;;;6142119;28;20297;-68
2022/09/25 09:17:53;;;;;;;1.90;1.90;;;13.80;99.90;;;;;;6146981;28;20253;-67
2022/09/25 09:21:01;;;;;;;3.25;1.77;;;13.80;99.90;;;;;;6164824;29;20196;-67
2022/09/25 09:24:13;;;;;;;1.98;1.80;;;13.80;99.90;;;;;;6147187;28;20308;-67
2022/09/25 09:27:34;;;;;;;1.90;1.90;;;13.90;99.90;;;;;;6144048;28;20227;-67
2022/09/25 09:30:49;;;;;;;2.17;2.00;;;13.90;99.90;;;;;;6164960;29;20255;-67
2022/09/25 09:34:04;;;;;;;2.05;2.05;;;14.00;99.90;;;;;;6148223;28;20577;-67
2022/09/25 09:37:17;;;;;;;2.10;2.10;;;13.90;99.90;;;;;;6142442;28;20195;-68
2022/09/25 09:40:42;;;;;;;2.83;2.28;;;14.00;99.90;;;;;;6164963;28;20188;-68
2022/09/25 09:44:00;;;;;;;1.92;1.80;;;14.00;99.90;;;;;;6147605;28;20243;-68
2022/09/25 09:47:18;;;;;;;1.65;1.60;;;14.00;99.90;;;;;;6141240;28;20476;-68
2022/09/25 09:50:40;;;;;;;3.03;2.10;;;14.10;99.90;;;;;;6164515;29;20258;-69
2022/09/25 09:53:52;;;;;;;1.73;1.63;;;14.10;99.90;;;;;;6148530;28;20543;-69
2022/09/25 09:56:58;;;;;;;1.90;1.80;;;14.30;99.90;;;;;;6140643;28;20188;-69
2022/09/25 10:00:07;;;;;;;3.97;1.90;;;14.40;99.90;;;;;;6164495;29;20227;-68
2022/09/25 10:03:22;;;;;;;2.03;2.00;;;14.50;99.90;;;;;;6153073;28;20236;-69
2022/09/25 10:06:30;;;;;;;1.92;1.83;;;14.60;99.90;;;;;;6142522;29;20423;-68
2022/09/25 10:09:36;;;;;;;1.85;1.85;;;14.80;99.90;;;;;;6165417;28;20298;-69
2022/09/25 10:12:41;;;;;;;2.05;2.00;;;15.00;99.90;;;;;;6144755;29;20438;-68
2022/09/25 10:15:50;;;;;;;2.17;1.77;;;15.00;99.90;;;;;;6145082;29;20267;-68
2022/09/25 10:19:03;;;;;;;1.80;1.80;;;15.10;99.90;;;;;;6143841;29;20231;-68
2022/09/25 10:22:15;;;;;;;1.52;1.50;;;15.20;99.90;;;;;;6142593;29;20188;-68
2022/09/25 10:25:37;;;;;;;1.67;1.67;;;15.30;99.90;;;;;;6119996;29;20217;-68
2022/09/25 10:28:42;;;;;;;1.42;1.40;;;15.30;99.90;;;;;;6120931;29;20239;-67
2022/09/25 10:31:47;;;;;;;1.73;1.63;;;15.40;99.90;;;;;;6121094;29;20221;-67
2022/09/25 10:34:53;;;;;;;1.80;1.80;;;15.50;99.90;;;;;;6120995;29;20263;-68
2022/09/25 10:38:01;;;;;;;3.53;2.00;;;15.50;99.90;;;;;;6120978;29;20232;-68
2022/09/25 10:41:09;;;;;;;1.70;1.70;;;15.60;99.90;;;;;;6121280;29;20193;-68
2022/09/25 10:44:23;;;;;;;3.25;1.95;;;15.60;99.90;;;;;;6120628;29;20313;-68
2022/09/25 10:51:07;;;;;;;2.10;2.10;;;15.70;99.90;;;;;;6120602;29;20495;-68
2022/09/25 10:54:16;;;;;;;1.75;1.75;;;15.80;99.90;;;;;;6120484;29;20539;-68
2022/09/25 10:57:32;;;;;;;1.60;1.60;;;15.90;99.90;;;;;;6120525;29;20291;-68
2022/09/25 11:00:43;;;;;;;2.38;1.73;;;15.90;99.90;;;;;;6120857;29;20189;-68
2022/09/25 11:03:52;;;;;;;1.50;1.50;;;15.90;99.90;;;;;;6120151;29;20237;-69
2022/09/25 11:07:00;;;;;;;1.92;1.88;;;15.90;99.90;;;;;;6120008;29;20224;-69
2022/09/25 11:10:21;;;;;;;1.95;1.83;;;15.90;99.90;;;;;;6120243;29;20402;-67
2022/09/25 11:13:29;;;;;;;1.90;1.80;;;15.80;99.90;;;;;;6120145;29;20436;-68
2022/09/25 11:16:46;;;;;;;1.65;1.65;;;15.80;99.90;;;;;;6120261;29;20397;-68
2022/09/25 11:20:21;;;;;;;2.50;2.40;;;15.80;99.90;;;;;;6119670;29;20252;-68
2022/09/25 11:23:33;;;;;;;1.90;1.90;;;15.80;99.90;;;;;;6120196;29;20352;-68
2022/09/25 11:26:44;;;;;;;2.25;1.67;;;15.80;99.90;;;;;;6120203;29;20212;-67
2022/09/25 11:30:00;;;;;;;1.90;1.80;;;15.90;99.90;;;;;;6119575;29;20413;-67
2022/09/25 11:33:11;;;;;;;1.77;1.77;;;16.00;99.90;;;;;;6119666;29;20296;-67
2022/09/25 11:36:19;;;;;;;1.67;1.67;;;16.00;99.90;;;;;;6118943;29;20199;-68
2022/09/25 11:43:00;;;;;;;1.55;1.55;;;16.00;99.90;;;;;;6119101;29;20607;-68
2022/09/25 11:46:12;;;;;;;1.83;1.83;;;16.10;99.90;;;;;;6119837;29;20287;-68
2022/09/25 11:49:21;;;;;;;1.88;1.77;;;16.10;99.90;;;;;;6119307;29;20296;-68
2022/09/25 11:52:39;;;;;;;1.90;1.80;;;16.20;99.90;;;;;;6119196;29;20266;-68
2022/09/25 11:55:58;;;;;;;1.80;1.80;;;16.20;99.90;;;;;;6119676;29;20193;-68
2022/09/25 11:59:31;;;;;;;1.63;1.52;;;16.20;99.90;;;;;;6119012;29;20263;-67
2022/09/25 12:02:53;;;;;;;1.60;1.60;;;16.10;99.90;;;;;;6119043;29;20236;-68
2022/09/25 12:06:20;;;;;;;2.00;1.90;;;16.00;99.90;;;;;;6117926;29;20520;-68
2022/09/25 12:09:50;;;;;;;1.80;1.80;;;15.90;99.90;;;;;;6118507;29;20304;-68
2022/09/25 12:13:03;;;;;;;1.90;1.80;;;15.90;99.90;;;;;;6095089;29;20233;-67
2022/09/25 12:16:18;;;;;;;1.90;1.90;;;15.80;99.90;;;;;;6095235;29;20200;-68
2022/09/25 12:19:33;;;;;;;1.65;1.60;;;15.90;99.90;;;;;;6095202;29;20603;-68
2022/09/25 12:22:48;;;;;;;1.90;1.90;;;16.00;99.90;;;;;;6094904;29;20233;-67
2022/09/25 12:26:18;;;;;;;2.10;2.00;;;16.00;99.90;;;;;;6095667;29;20223;-67
2022/09/25 12:29:50;;;;;;;1.80;1.70;;;16.20;99.90;;;;;;6094018;29;20260;-67
2022/09/25 12:33:16;;;;;;;1.52;1.52;;;16.30;99.90;;;;;;6094535;29;20429;-67
2022/09/25 12:36:23;;;;;;;1.70;1.70;;;16.40;99.90;;;;;;6094754;29;20226;-68
2022/09/25 12:39:34;;;;;;;2.17;1.40;;;16.30;99.90;;;;;;6094870;29;20233;-67
2022/09/25 12:42:43;;;;;;;1.70;1.60;;;16.30;99.90;;;;;;6094666;29;20350;-67
2022/09/25 12:45:51;;;;;;;3.70;1.55;;;16.30;99.90;;;;;;6094633;29;20410;-67
2022/09/25 12:49:04;;;;;;;11.27;1.80;;;16.20;99.90;;;;;;6093362;29;20256;-67
2022/09/25 12:52:14;;;;;;;1.50;1.50;;;16.20;99.90;;;;;;6094393;29;20190;-67
2022/09/25 12:55:22;;;;;;;1.45;1.45;;;16.20;99.90;;;;;;6094382;29;20193;-67
2022/09/25 12:58:59;;;;;;;1.55;1.50;;;16.20;99.90;;;;;;6093964;29;20240;-67
2022/09/25 13:02:12;;;;;;;1.70;1.60;;;16.20;99.90;;;;;;6081560;29;20556;-68
2022/09/25 13:05:23;;;;;;;2.63;1.60;;;16.20;99.90;;;;;;6094210;29;20411;-68
2022/09/25 13:08:33;;;;;;;1.88;1.83;;;16.10;99.90;;;;;;6093917;29;20544;-67
2022/09/25 13:11:44;;;;;;;1.77;1.67;;;16.20;99.90;;;;;;6111413;29;20241;-67
2022/09/25 13:14:52;;;;;;;1.70;1.70;;;16.10;99.90;;;;;;6117603;29;20307;-68
2022/09/25 13:17:57;;;;;;;1.67;1.60;;;16.10;99.90;;;;;;6116481;29;20236;-67
2022/09/25 13:21:24;;;;;;;1.85;1.80;;;16.10;99.90;;;;;;6117272;29;20540;-66
2022/09/25 13:24:29;;;;;;;1.67;1.60;;;16.20;99.90;;;;;;6117300;29;20236;-68
2022/09/25 13:27:41;;;;;;;1.60;1.60;;;16.30;99.90;;;;;;6116902;29;20388;-67
2022/09/25 13:31:06;;;;;;;1.40;1.40;;;16.30;99.90;;;;;;6117098;29;20496;-67
2022/09/25 13:34:16;;;;;;;1.60;1.60;;;16.50;99.90;;;;;;6116715;29;20603;-67
2022/09/25 13:37:27;;;;;;;1.40;1.40;;;17.00;99.90;;;;;;6117138;29;20228;-67
2022/09/25 13:40:44;;;;;;;1.80;1.80;;;18.90;98.90;;;;;;6116645;29;20376;-66
2022/09/25 13:43:49;;;;;;;1.52;1.52;;;18.60;97.90;;;;;;6116961;29;20236;-67
2022/09/25 13:47:53;;;;;;;1.30;1.30;;;18.50;97.30;;;;;;6116911;29;20271;-67
2022/09/25 13:51:31;;;;;;;1.60;1.60;;;18.10;97.60;;;;;;6140309;29;20220;-67
2022/09/25 13:54:36;;;;;;;1.20;1.20;;;17.30;98.60;;;;;;6140282;29;20239;-67
2022/09/25 13:58:02;;;;;;;1.23;1.23;;;17.00;99.00;;;;;;6139829;29;20424;-67
2022/09/25 14:01:31;;;;;;;1.40;1.40;;;16.90;99.90;;;;;;6140332;29;20189;-67
2022/09/25 14:04:37;;;;;;;1.60;1.50;;;16.90;99.90;;;;;;6140262;29;20295;-68
2022/09/25 14:07:41;;;;;;;1.30;1.30;;;16.70;99.90;;;;;;6139776;29;20239;-68
2022/09/25 14:10:49;;;;;;;1.60;1.60;;;16.70;99.90;;;;;;6139233;29;20262;-68
2022/09/25 14:13:55;;;;;;;1.25;1.25;;;16.60;99.90;;;;;;6140172;28;20232;-68
2022/09/25 14:17:00;;;;;;;1.50;1.50;;;16.50;99.90;;;;;;6139734;29;20362;-68
2022/09/25 14:20:10;;;;;;;2.50;1.77;;;16.50;99.90;;;;;;6140279;29;20187;-66
2022/09/25 14:23:22;;;;;;;1.85;1.50;;;16.50;99.90;;;;;;6139843;29;20290;-66
2022/09/25 14:26:29;;;;;;;1.50;1.50;;;16.40;99.90;;;;;;6140555;29;20219;-67
2022/09/25 14:29:41;;;;;;;1.95;1.40;;;16.40;99.90;;;;;;6138759;29;20236;-66
2022/09/25 14:32:59;;;;;;;1.67;1.58;;;16.30;99.90;;;;;;6139493;29;20232;-67
2022/09/25 14:36:11;;;;;;;1.35;1.35;;;16.20;99.90;;;;;;6140404;29;20192;-67
2022/09/25 14:39:38;;;;;;;1.45;1.45;;;16.10;99.90;;;;;;6139685;29;20326;-67
2022/09/25 14:43:01;;;;;;;1.45;1.45;;;16.10;99.90;;;;;;6139320;29;20255;-67
2022/09/25 14:46:07;;;;;;;1.60;1.60;;;16.10;99.90;;;;;;6140147;29;20219;-67
2022/09/25 14:49:24;;;;;;;2.30;1.60;;;16.00;99.90;;;;;;6139991;29;20236;-67
2022/09/25 14:52:33;;;;;;;1.70;1.60;;;16.00;99.90;;;;;;6140289;29;20231;-67
2022/09/25 14:55:41;;;;;;;1.33;1.33;;;16.00;99.90;;;;;;6144470;29;20259;-67
2022/09/25 14:58:50;;;;;;;1.42;1.42;;;15.90;99.90;;;;;;6142868;29;20243;-67
2022/09/25 15:01:54;;;;;;;1.58;1.58;;;15.80;99.90;;;;;;6144543;29;20196;-67
2022/09/25 15:04:58;;;;;;;3.13;1.55;;;15.80;99.90;;;;;;6144090;29;20200;-68
2022/09/25 15:08:19;;;;;;;1.50;1.50;;;15.70;99.90;;;;;;6143882;28;20287;-67
2022/09/25 15:11:28;;;;;;;3.53;1.60;;;15.70;99.90;;;;;;6158833;29;20484;-66
2022/09/25 15:14:33;;;;;;;1.60;1.60;;;15.60;99.90;;;;;;6167762;28;20332;-67
2022/09/25 15:17:48;;;;;;;1.60;1.60;;;15.60;99.90;;;;;;6167484;28;20365;-67
2022/09/25 15:20:52;;;;;;;1.50;1.50;;;15.70;99.90;;;;;;6167371;28;20224;-67
2022/09/25 15:24:01;;;;;;;4.00;1.80;;;15.60;99.90;;;;;;6167186;28;20231;-67
2022/09/25 15:27:07;;;;;;;1.85;1.75;;;15.60;99.90;;;;;;6167417;28;20217;-67
2022/09/25 15:30:17;;;;;;;1.60;1.60;;;15.50;99.90;;;;;;6167186;29;20188;-67
2022/09/25 15:33:23;;;;;;;1.70;1.70;;;15.50;99.90;;;;;;6166854;28;20533;-67
2022/09/25 15:36:27;;;;;;;2.17;1.60;;;15.50;99.90;;;;;;6166338;29;20202;-66
2022/09/25 15:39:31;;;;;;;1.85;1.85;;;15.50;99.90;;;;;;6167121;28;20258;-67
2022/09/25 15:42:36;;;;;;;1.60;1.60;;;15.40;99.90;;;;;;6166072;28;20235;-67
2022/09/25 15:45:45;;;;;;;2.75;1.50;;;15.40;99.90;;;;;;6167102;29;20187;-67
2022/09/25 15:48:52;;;;;;;1.80;1.80;;;15.30;99.90;;;;;;6166776;28;20238;-67
2022/09/25 15:51:59;;;;;;;1.70;1.70;;;15.20;99.90;;;;;;6166441;28;20191;-67
2022/09/25 15:55:12;;;;;;;1.60;1.60;;;15.10;99.90;;;;;;6167188;29;20275;-67
2022/09/25 15:58:18;;;;;;;1.92;1.92;;;15.10;99.90;;;;;;6166443;28;20239;-67
2022/09/25 16:04:49;;;;;;;2.00;1.90;;;15.00;99.90;;;;;;6166246;28;20294;-67
2022/09/25 16:08:26;;;;;;;1.95;1.95;;;14.90;99.90;;;;;;6166020;28;20239;-66
2022/09/25 16:11:30;;;;;;;2.10;1.92;;;14.90;99.90;;;;;;6149993;28;20332;-67
2022/09/25 16:14:35;;;;;;;1.80;1.80;;;14.80;99.90;;;;;;6142504;29;20235;-67
2022/09/25 16:17:42;;;;;;;1.80;1.70;;;14.70;99.90;;;;;;6142082;29;20263;-67
2022/09/25 16:20:46;;;;;;;2.60;2.05;;;14.70;99.90;;;;;;6142748;29;20188;-67
2022/09/25 16:23:57;;;;;;;2.28;2.10;;;14.70;99.90;;;;;;6142082;29;20454;-68
2022/09/25 16:27:03;;;;;;;2.38;2.28;;;14.60;99.90;;;;;;6142216;29;20216;-68
2022/09/25 16:30:17;;;;;;;2.10;2.10;;;14.60;99.90;;;;;;6142715;29;20216;-67
2022/09/25 16:33:26;;;;;;;2.22;2.13;;;14.50;99.90;;;;;;6142127;29;20234;-68
2022/09/25 16:36:39;;;;;;;2.15;2.13;;;14.50;99.90;;;;;;6142394;29;20198;-67
2022/09/25 16:39:43;;;;;;;1.90;1.90;;;14.50;99.90;;;;;;6141905;29;20232;-67
2022/09/25 16:42:47;;;;;;;2.28;2.17;;;14.40;99.90;;;;;;6141645;29;20248;-67
2022/09/25 16:46:00;;;;;;;2.10;2.00;;;14.30;99.90;;;;;;6142229;29;20203;-66
2022/09/25 16:49:05;;;;;;;2.35;2.25;;;14.30;99.90;;;;;;6141573;29;20236;-66